15:01
Airports
History
Links
Donate
Help keep this website running!
PayPal
Bitcoin
Information on this page is community maintained and may be outdated or inaccurate and is intended for reference only or PC simulator navigating!
Always use approved charts for navigating.
W59
Hinton-Alderson
Hinton-Alderson (W59)
Pence Springs, West Virginia, United States (24962)
4
Lat/Lng:37° 40' 46.43" N / 80° 42' 37.29" W
37.679565 / -80.710358
Elevation:1520'ft 463mMSL
ID / ICAO:W59
Runways:1
Longest:(10-28) 820.8m 2,693ft Grass
Distance To
Airport ID:
Nearby VORs <50NM
Nearby NDBs
Nearby WeatherUpdated 03-26-17 14:55 GMT
Nearby weather at KLWB, Greenbrier Valley located 21.0 nautical miles from W59
Altimeter: 30.18
Visibility: 10.0 statute miles
Wind: 9 knots (160°)
Temp: 17°c 63°f
Humidity: 55.4%

METAR: KLWB 261455Z AUTO 16009G16KT 10SM BKN037 BKN044 17/08 A3018 RMK AO2 T01670083

(Powered by phpweather)
Runway 10 / 28
Dimensions:820.8 x 15.2m 2693' x 50'ft
Surface:Grass
Runway 10 [A]Runway 28 [B]
Heading:093°TH 273°TH
Lat:
Lng:
37° 40' 47.36"N
80° 42' 54.09"W
37° 40' 45.5"N
80° 42' 20.49"W
Google Map
Nearby Airports
(R) Rainelle 18.6 NM
WV30 N 358°
4 Rainelle 18.6 NM
9W4 N 358°
4 Peterstown 19.9 NM
WV10 SSW 195°
(C) Greenbrier Valley 21.0 NM
KLWB (WX) NE 53°
(U) Raleigh County Memorial 23.8 NM
KBKW (WX) WNW 288°
(U) Fayette 32.8 NM
I89 NW 317°
(R) New River Gorge 34.3 NM
WV32 NW 325°
VFR Chart
Flight Planning at SkyVector.com